Overview Statistics Trail Chart Weather Telemetry Raw packets
 

This is the latest recevied weather packets stored in our database for station/object N5CSU. If no packets are shown the sender has not sent any weather packets the latest 10 day(s).

<< 40 41 42 43 44 45 46 >>
Time Temp. Humidity Pressure Rain* Wind** Luminosity Snow
1788343506 25° C 82% 1015.7 hPa 0 mm - 0 W/m² -
1788343205 25° C 84% 1015.7 hPa 0 mm - 0 W/m² -
1788342900 25.56° C 84% 1015.5 hPa 0 mm - 0 W/m² -
1788342599 25° C 84% 1015.7 hPa 0 mm - 0 W/m² -
1788342295 25.56° C 83% 1015.6 hPa 0 mm - 0 W/m² -
1788341996 26.11° C 83% 1015.7 hPa 0 mm - 0 W/m² -
1788341696 26.67° C 80% 1015.6 hPa 0 mm - 0 W/m² -
1788341395 26.67° C 75% 1015.5 hPa 0 mm - 0 W/m² -
1788341091 26.67° C 75% 1015.6 hPa 0 mm - 0 W/m² -
1788340790 26.67° C 74% 1015.4 hPa 0 mm - 0 W/m² -
1788340485 26.67° C 74% 1015.4 hPa 0 mm - 0 W/m² -
1788340182 26.67° C 73% 1015.5 hPa 0 mm - 0 W/m² -
1788339877 27.22° C 73% 1015.4 hPa 0 mm - 0 W/m² -
1788339576 27.22° C 72% 1015.5 hPa 0 mm - 0 W/m² -
1788339271 27.22° C 72% 1015.2 hPa 0 mm - 0 W/m² -
1788338966 27.22° C 72% 1015.3 hPa 0 mm - 0 W/m² -
1788338663 27.22° C 72% 1015.4 hPa 0 mm - 0 W/m² -
1788338359 27.78° C 71% 1015.2 hPa 0 mm - 0 W/m² -
1788338058 27.78° C 71% 1015.3 hPa 0 mm - 0 W/m² -
1788337753 27.78° C 70% 1015.3 hPa 0 mm - 0 W/m² -
1788337443 27.78° C 70% 1015.5 hPa 0 mm - 0 W/m² -
1788337139 27.78° C 70% 1015.4 hPa 0 mm - 0 W/m² -
1788336836 27.78° C 69% 1015.4 hPa 0 mm - 0 W/m² -
1788336536 28.33° C 69% 1015.2 hPa 0 mm - 0 W/m² -
1788336232 28.33° C 69% 1015.3 hPa 0 mm - 0 W/m² -

* Rain latest hour (hover to see other rain measurements)
** Current wind speed in m/s (hover to see current wind gust speed)